sensor_id;sensor_type;location;lat;lon;timestamp;temperature;humidity
3202;DHT22;34843;48.744;8.958;2022-10-16T00:01:30;15.30;99.90
3202;DHT22;34843;48.744;8.958;2022-10-16T00:03:56;15.20;99.90
3202;DHT22;34843;48.744;8.958;2022-10-16T00:06:22;15.20;99.90
3202;DHT22;34843;48.744;8.958;2022-10-16T00:08:48;15.20;99.90
3202;DHT22;34843;48.744;8.958;2022-10-16T00:11:15;15.20;99.90
3202;DHT22;34843;48.744;8.958;2022-10-16T00:13:41;15.20;99.90
3202;DHT22;34843;48.744;8.958;2022-10-16T00:16:07;15.20;99.90
3202;DHT22;34843;48.744;8.958;2022-10-16T00:18:32;15.20;99.90
3202;DHT22;34843;48.744;8.958;2022-10-16T00:21:01;15.20;99.90
3202;DHT22;34843;48.744;8.958;2022-10-16T00:23:26;15.20;99.90
3202;DHT22;34843;48.744;8.958;2022-10-16T00:25:56;15.20;99.90
3202;DHT22;34843;48.744;8.958;2022-10-16T00:28:22;15.20;99.90
3202;DHT22;34843;48.744;8.958;2022-10-16T00:30:47;15.10;99.90
3202;DHT22;34843;48.744;8.958;2022-10-16T00:33:13;15.10;99.90
3202;DHT22;34843;48.744;8.958;2022-10-16T00:35:38;15.10;99.90
3202;DHT22;34843;48.744;8.958;2022-10-16T00:38:04;15.10;99.90
3202;DHT22;34843;48.744;8.958;2022-10-16T00:40:29;15.00;99.90
3202;DHT22;34843;48.744;8.958;2022-10-16T00:42:55;15.00;99.90
3202;DHT22;34843;48.744;8.958;2022-10-16T00:45:20;15.00;99.90
3202;DHT22;34843;48.744;8.958;2022-10-16T00:47:46;15.00;99.90
3202;DHT22;34843;48.744;8.958;2022-10-16T00:52:48;15.00;99.90
3202;DHT22;34843;48.744;8.958;2022-10-16T00:55:15;15.00;99.90
3202;DHT22;34843;48.744;8.958;2022-10-16T00:57:40;15.10;99.90
3202;DHT22;34843;48.744;8.958;2022-10-16T01:00:08;15.00;99.90
3202;DHT22;34843;48.744;8.958;2022-10-16T01:02:33;15.10;99.90
3202;DHT22;34843;48.744;8.958;2022-10-16T01:04:59;15.10;99.90
3202;DHT22;34843;48.744;8.958;2022-10-16T01:07:36;15.10;99.90
3202;DHT22;34843;48.744;8.958;2022-10-16T01:10:25;15.10;99.90
3202;DHT22;34843;48.744;8.958;2022-10-16T01:12:54;15.10;99.90
3202;DHT22;34843;48.744;8.958;2022-10-16T01:18:16;15.00;99.90
3202;DHT22;34843;48.744;8.958;2022-10-16T01:20:47;15.00;99.90
3202;DHT22;34843;48.744;8.958;2022-10-16T01:28:15;14.90;99.90
3202;DHT22;34843;48.744;8.958;2022-10-16T01:30:42;14.90;99.90
3202;DHT22;34843;48.744;8.958;2022-10-16T01:33:10;15.00;99.90
3202;DHT22;34843;48.744;8.958;2022-10-16T01:35:52;15.00;99.90
3202;DHT22;34843;48.744;8.958;2022-10-16T01:38:19;15.00;99.90
3202;DHT22;34843;48.744;8.958;2022-10-16T01:40:49;15.00;99.90
3202;DHT22;34843;48.744;8.958;2022-10-16T01:43:24;15.00;99.90
3202;DHT22;34843;48.744;8.958;2022-10-16T01:45:50;15.00;99.90
3202;DHT22;34843;48.744;8.958;2022-10-16T01:48:17;15.00;99.90
3202;DHT22;34843;48.744;8.958;2022-10-16T01:50:44;15.00;99.90
3202;DHT22;34843;48.744;8.958;2022-10-16T01:53:11;15.00;99.90
3202;DHT22;34843;48.744;8.958;2022-10-16T01:55:38;15.00;99.90
3202;DHT22;34843;48.744;8.958;2022-10-16T01:58:07;15.10;99.90
3202;DHT22;34843;48.744;8.958;2022-10-16T02:00:32;15.10;99.90
3202;DHT22;34843;48.744;8.958;2022-10-16T02:02:59;15.10;99.90
3202;DHT22;34843;48.744;8.958;2022-10-16T02:07:52;15.20;99.90
3202;DHT22;34843;48.744;8.958;2022-10-16T02:10:18;15.20;99.90
3202;DHT22;34843;48.744;8.958;2022-10-16T02:12:50;15.20;99.90
3202;DHT22;34843;48.744;8.958;2022-10-16T02:15:20;15.20;99.90
3202;DHT22;34843;48.744;8.958;2022-10-16T02:17:45;15.20;99.90
3202;DHT22;34843;48.744;8.958;2022-10-16T02:20:11;15.20;99.90
3202;DHT22;34843;48.744;8.958;2022-10-16T02:22:39;15.20;99.90
3202;DHT22;34843;48.744;8.958;2022-10-16T02:25:25;15.20;99.90
3202;DHT22;34843;48.744;8.958;2022-10-16T02:30:25;15.20;99.90
3202;DHT22;34843;48.744;8.958;2022-10-16T02:32:52;15.20;99.90
3202;DHT22;34843;48.744;8.958;2022-10-16T02:35:19;15.20;99.90
3202;DHT22;34843;48.744;8.958;2022-10-16T02:37:46;15.20;99.90
3202;DHT22;34843;48.744;8.958;2022-10-16T02:40:11;15.20;99.90
3202;DHT22;34843;48.744;8.958;2022-10-16T02:42:38;15.20;99.90
3202;DHT22;34843;48.744;8.958;2022-10-16T02:45:05;15.20;99.90
3202;DHT22;34843;48.744;8.958;2022-10-16T02:47:31;15.20;99.90
3202;DHT22;34843;48.744;8.958;2022-10-16T02:49:56;15.20;99.90
3202;DHT22;34843;48.744;8.958;2022-10-16T02:52:22;15.20;99.90
3202;DHT22;34843;48.744;8.958;2022-10-16T02:54:47;15.20;99.90
3202;DHT22;34843;48.744;8.958;2022-10-16T02:57:13;15.20;99.90
3202;DHT22;34843;48.744;8.958;2022-10-16T02:59:38;15.20;99.90
3202;DHT22;34843;48.744;8.958;2022-10-16T03:02:04;15.10;99.90
3202;DHT22;34843;48.744;8.958;2022-10-16T03:04:29;15.10;99.90
3202;DHT22;34843;48.744;8.958;2022-10-16T03:06:54;15.10;99.90
3202;DHT22;34843;48.744;8.958;2022-10-16T03:09:20;15.10;99.90
3202;DHT22;34843;48.744;8.958;2022-10-16T03:11:45;15.10;99.90
3202;DHT22;34843;48.744;8.958;2022-10-16T03:14:11;15.10;99.90
3202;DHT22;34843;48.744;8.958;2022-10-16T03:16:36;15.10;99.90
3202;DHT22;34843;48.744;8.958;2022-10-16T03:19:02;15.10;99.90
3202;DHT22;34843;48.744;8.958;2022-10-16T03:21:27;15.10;99.90
3202;DHT22;34843;48.744;8.958;2022-10-16T03:23:52;15.10;99.90
3202;DHT22;34843;48.744;8.958;2022-10-16T03:26:18;15.10;99.90
3202;DHT22;34843;48.744;8.958;2022-10-16T03:28:43;15.10;99.90
3202;DHT22;34843;48.744;8.958;2022-10-16T03:31:09;15.10;99.90
3202;DHT22;34843;48.744;8.958;2022-10-16T03:33:34;15.10;99.90
3202;DHT22;34843;48.744;8.958;2022-10-16T03:35:59;15.10;99.90
3202;DHT22;34843;48.744;8.958;2022-10-16T03:38:25;15.20;99.90
3202;DHT22;34843;48.744;8.958;2022-10-16T03:40:50;15.10;99.90
3202;DHT22;34843;48.744;8.958;2022-10-16T03:43:16;15.10;99.90
3202;DHT22;34843;48.744;8.958;2022-10-16T03:45:41;15.10;99.90
3202;DHT22;34843;48.744;8.958;2022-10-16T03:48:07;15.10;99.90
3202;DHT22;34843;48.744;8.958;2022-10-16T03:50:32;15.10;99.90
3202;DHT22;34843;48.744;8.958;2022-10-16T03:52:58;15.10;99.90
3202;DHT22;34843;48.744;8.958;2022-10-16T03:55:23;15.10;99.90
3202;DHT22;34843;48.744;8.958;2022-10-16T03:57:49;15.10;99.90
3202;DHT22;34843;48.744;8.958;2022-10-16T04:00:14;15.00;99.90
3202;DHT22;34843;48.744;8.958;2022-10-16T04:02:40;15.00;99.90
3202;DHT22;34843;48.744;8.958;2022-10-16T04:05:06;15.00;99.90
3202;DHT22;34843;48.744;8.958;2022-10-16T04:07:31;15.00;99.90
3202;DHT22;34843;48.744;8.958;2022-10-16T04:09:57;15.10;99.90
3202;DHT22;34843;48.744;8.958;2022-10-16T04:12:24;15.00;99.90
3202;DHT22;34843;48.744;8.958;2022-10-16T04:14:49;15.00;99.90
3202;DHT22;34843;48.744;8.958;2022-10-16T04:17:15;15.10;99.90
3202;DHT22;34843;48.744;8.958;2022-10-16T04:19:40;15.10;99.90
3202;DHT22;34843;48.744;8.958;2022-10-16T04:22:06;15.10;99.90
3202;DHT22;34843;48.744;8.958;2022-10-16T04:24:31;15.10;99.90
3202;DHT22;34843;48.744;8.958;2022-10-16T04:26:56;15.10;99.90
3202;DHT22;34843;48.744;8.958;2022-10-16T04:29:22;15.10;99.90
3202;DHT22;34843;48.744;8.958;2022-10-16T04:31:47;15.00;99.90
3202;DHT22;34843;48.744;8.958;2022-10-16T04:34:13;15.00;99.90
3202;DHT22;34843;48.744;8.958;2022-10-16T04:36:38;15.10;99.90
3202;DHT22;34843;48.744;8.958;2022-10-16T04:39:04;15.10;99.90
3202;DHT22;34843;48.744;8.958;2022-10-16T04:41:29;15.10;99.90
3202;DHT22;34843;48.744;8.958;2022-10-16T04:43:54;15.10;99.90
3202;DHT22;34843;48.744;8.958;2022-10-16T04:46:20;15.10;99.90
3202;DHT22;34843;48.744;8.958;2022-10-16T04:48:45;15.10;99.90
3202;DHT22;34843;48.744;8.958;2022-10-16T04:51:12;15.10;99.90
3202;DHT22;34843;48.744;8.958;2022-10-16T04:53:37;15.10;99.90
3202;DHT22;34843;48.744;8.958;2022-10-16T04:56:02;15.10;99.90
3202;DHT22;34843;48.744;8.958;2022-10-16T04:58:28;15.10;99.90
3202;DHT22;34843;48.744;8.958;2022-10-16T05:00:53;15.10;99.90
3202;DHT22;34843;48.744;8.958;2022-10-16T05:03:19;15.10;99.90
3202;DHT22;34843;48.744;8.958;2022-10-16T05:05:44;15.10;99.90
3202;DHT22;34843;48.744;8.958;2022-10-16T05:08:11;15.10;99.90
3202;DHT22;34843;48.744;8.958;2022-10-16T05:10:36;15.10;99.90
3202;DHT22;34843;48.744;8.958;2022-10-16T05:13:02;15.00;99.90
3202;DHT22;34843;48.744;8.958;2022-10-16T05:15:28;14.90;99.90
3202;DHT22;34843;48.744;8.958;2022-10-16T05:17:54;14.90;99.90
3202;DHT22;34843;48.744;8.958;2022-10-16T05:20:20;14.90;99.90
3202;DHT22;34843;48.744;8.958;2022-10-16T05:22:45;14.80;99.90
3202;DHT22;34843;48.744;8.958;2022-10-16T05:25:11;14.80;99.90
3202;DHT22;34843;48.744;8.958;2022-10-16T05:27:36;14.80;99.90
3202;DHT22;34843;48.744;8.958;2022-10-16T05:30:01;14.70;99.90
3202;DHT22;34843;48.744;8.958;2022-10-16T05:32:27;14.70;99.90
3202;DHT22;34843;48.744;8.958;2022-10-16T05:34:52;14.70;99.90
3202;DHT22;34843;48.744;8.958;2022-10-16T05:37:18;14.60;99.90
3202;DHT22;34843;48.744;8.958;2022-10-16T05:39:43;14.60;99.90
3202;DHT22;34843;48.744;8.958;2022-10-16T05:42:09;14.60;99.90
3202;DHT22;34843;48.744;8.958;2022-10-16T05:44:34;14.50;99.90
3202;DHT22;34843;48.744;8.958;2022-10-16T05:47:00;14.60;99.90
3202;DHT22;34843;48.744;8.958;2022-10-16T05:49:25;14.60;99.90
3202;DHT22;34843;48.744;8.958;2022-10-16T05:51:50;14.60;99.90
3202;DHT22;34843;48.744;8.958;2022-10-16T05:54:16;14.60;99.90
3202;DHT22;34843;48.744;8.958;2022-10-16T05:56:41;14.60;99.90
3202;DHT22;34843;48.744;8.958;2022-10-16T05:59:07;14.60;99.90
3202;DHT22;34843;48.744;8.958;2022-10-16T06:01:32;14.60;99.90
3202;DHT22;34843;48.744;8.958;2022-10-16T06:03:58;14.50;99.90
3202;DHT22;34843;48.744;8.958;2022-10-16T06:06:25;14.60;99.90
3202;DHT22;34843;48.744;8.958;2022-10-16T06:08:51;14.60;99.90
3202;DHT22;34843;48.744;8.958;2022-10-16T06:11:18;14.60;99.90
3202;DHT22;34843;48.744;8.958;2022-10-16T06:13:44;14.60;99.90
3202;DHT22;34843;48.744;8.958;2022-10-16T06:16:11;14.60;99.90
3202;DHT22;34843;48.744;8.958;2022-10-16T06:18:37;14.60;99.90
3202;DHT22;34843;48.744;8.958;2022-10-16T06:21:09;14.60;99.90
3202;DHT22;34843;48.744;8.958;2022-10-16T06:23:35;14.70;99.90
3202;DHT22;34843;48.744;8.958;2022-10-16T06:26:04;14.70;99.90
3202;DHT22;34843;48.744;8.958;2022-10-16T06:28:29;14.70;99.90
3202;DHT22;34843;48.744;8.958;2022-10-16T06:30:59;14.70;99.90
3202;DHT22;34843;48.744;8.958;2022-10-16T06:33:24;14.70;99.90
3202;DHT22;34843;48.744;8.958;2022-10-16T06:35:50;14.70;99.90
3202;DHT22;34843;48.744;8.958;2022-10-16T06:38:15;14.80;99.90
3202;DHT22;34843;48.744;8.958;2022-10-16T06:40:41;14.90;99.90
3202;DHT22;34843;48.744;8.958;2022-10-16T06:43:06;15.00;99.90
3202;DHT22;34843;48.744;8.958;2022-10-16T06:45:32;15.10;99.90
3202;DHT22;34843;48.744;8.958;2022-10-16T06:47:57;15.20;99.90
3202;DHT22;34843;48.744;8.958;2022-10-16T06:50:23;15.20;99.90
3202;DHT22;34843;48.744;8.958;2022-10-16T06:52:48;15.20;99.90
3202;DHT22;34843;48.744;8.958;2022-10-16T06:55:14;15.20;99.90
3202;DHT22;34843;48.744;8.958;2022-10-16T06:57:40;15.30;99.90
3202;DHT22;34843;48.744;8.958;2022-10-16T07:00:06;15.30;99.90
3202;DHT22;34843;48.744;8.958;2022-10-16T07:02:31;15.40;99.90
3202;DHT22;34843;48.744;8.958;2022-10-16T07:04:56;15.60;99.90
3202;DHT22;34843;48.744;8.958;2022-10-16T07:07:22;15.70;99.90
3202;DHT22;34843;48.744;8.958;2022-10-16T07:09:49;15.80;99.90
3202;DHT22;34843;48.744;8.958;2022-10-16T07:12:15;15.90;99.90
3202;DHT22;34843;48.744;8.958;2022-10-16T07:14:40;15.90;99.90
3202;DHT22;34843;48.744;8.958;2022-10-16T07:17:06;16.00;99.90
3202;DHT22;34843;48.744;8.958;2022-10-16T07:19:31;16.10;99.90
3202;DHT22;34843;48.744;8.958;2022-10-16T07:21:57;16.20;99.90
3202;DHT22;34843;48.744;8.958;2022-10-16T07:24:22;16.30;99.90
3202;DHT22;34843;48.744;8.958;2022-10-16T07:26:48;16.20;99.90
3202;DHT22;34843;48.744;8.958;2022-10-16T07:29:14;16.20;99.90
3202;DHT22;34843;48.744;8.958;2022-10-16T07:31:40;16.20;99.90
3202;DHT22;34843;48.744;8.958;2022-10-16T07:34:05;16.20;99.90
3202;DHT22;34843;48.744;8.958;2022-10-16T07:36:31;16.20;99.90
3202;DHT22;34843;48.744;8.958;2022-10-16T07:38:56;16.20;99.90
3202;DHT22;34843;48.744;8.958;2022-10-16T07:41:22;16.30;99.90
3202;DHT22;34843;48.744;8.958;2022-10-16T07:43:51;16.30;99.90
3202;DHT22;34843;48.744;8.958;2022-10-16T07:46:17;16.40;99.90
3202;DHT22;34843;48.744;8.958;2022-10-16T07:48:43;16.50;99.90
3202;DHT22;34843;48.744;8.958;2022-10-16T07:51:12;16.60;99.90
3202;DHT22;34843;48.744;8.958;2022-10-16T07:53:38;16.70;99.90
3202;DHT22;34843;48.744;8.958;2022-10-16T07:56:04;16.70;99.90
3202;DHT22;34843;48.744;8.958;2022-10-16T07:58:31;16.80;99.90
3202;DHT22;34843;48.744;8.958;2022-10-16T08:00:57;17.00;99.90
3202;DHT22;34843;48.744;8.958;2022-10-16T08:03:23;17.10;99.90
3202;DHT22;34843;48.744;8.958;2022-10-16T08:05:48;17.20;99.90
3202;DHT22;34843;48.744;8.958;2022-10-16T08:08:14;17.30;99.90
3202;DHT22;34843;48.744;8.958;2022-10-16T08:10:40;17.40;99.90
3202;DHT22;34843;48.744;8.958;2022-10-16T08:13:05;17.60;99.90
3202;DHT22;34843;48.744;8.958;2022-10-16T08:15:31;17.60;99.90
3202;DHT22;34843;48.744;8.958;2022-10-16T08:17:57;17.80;99.90
3202;DHT22;34843;48.744;8.958;2022-10-16T08:20:22;18.00;99.90
3202;DHT22;34843;48.744;8.958;2022-10-16T08:22:48;18.10;99.90
3202;DHT22;34843;48.744;8.958;2022-10-16T08:25:13;18.20;99.90
3202;DHT22;34843;48.744;8.958;2022-10-16T08:27:39;18.30;99.90
3202;DHT22;34843;48.744;8.958;2022-10-16T08:30:04;18.40;99.90
3202;DHT22;34843;48.744;8.958;2022-10-16T08:32:30;18.40;99.90
3202;DHT22;34843;48.744;8.958;2022-10-16T08:34:55;18.50;99.90
3202;DHT22;34843;48.744;8.958;2022-10-16T08:37:21;18.50;99.90
3202;DHT22;34843;48.744;8.958;2022-10-16T08:39:46;18.50;99.90
3202;DHT22;34843;48.744;8.958;2022-10-16T08:49:31;18.70;99.90
3202;DHT22;34843;48.744;8.958;2022-10-16T08:51:57;18.70;99.90
3202;DHT22;34843;48.744;8.958;2022-10-16T08:54:26;18.70;99.90
3202;DHT22;34843;48.744;8.958;2022-10-16T08:56:57;18.80;99.90
3202;DHT22;34843;48.744;8.958;2022-10-16T08:59:26;18.80;99.90
3202;DHT22;34843;48.744;8.958;2022-10-16T09:01:51;18.90;99.90
3202;DHT22;34843;48.744;8.958;2022-10-16T09:11:53;18.60;99.90
3202;DHT22;34843;48.744;8.958;2022-10-16T09:17:12;18.70;99.90
3202;DHT22;34843;48.744;8.958;2022-10-16T09:19:41;18.80;99.90
3202;DHT22;34843;48.744;8.958;2022-10-16T09:22:12;18.90;99.90
3202;DHT22;34843;48.744;8.958;2022-10-16T09:24:37;18.90;99.90
3202;DHT22;34843;48.744;8.958;2022-10-16T09:27:03;19.10;99.90
3202;DHT22;34843;48.744;8.958;2022-10-16T09:29:28;19.00;99.90
3202;DHT22;34843;48.744;8.958;2022-10-16T09:31:54;19.10;99.90
3202;DHT22;34843;48.744;8.958;2022-10-16T09:36:49;19.10;99.90
3202;DHT22;34843;48.744;8.958;2022-10-16T09:39:14;19.10;99.90
3202;DHT22;34843;48.744;8.958;2022-10-16T09:41:41;19.20;99.90
3202;DHT22;34843;48.744;8.958;2022-10-16T09:46:45;19.20;99.90
3202;DHT22;34843;48.744;8.958;2022-10-16T09:49:23;19.20;99.90
3202;DHT22;34843;48.744;8.958;2022-10-16T09:51:50;19.30;99.90
3202;DHT22;34843;48.744;8.958;2022-10-16T09:54:16;19.40;99.90
3202;DHT22;34843;48.744;8.958;2022-10-16T09:56:42;19.50;99.90
3202;DHT22;34843;48.744;8.958;2022-10-16T09:59:11;19.70;99.90
3202;DHT22;34843;48.744;8.958;2022-10-16T10:01:48;19.90;99.90
3202;DHT22;34843;48.744;8.958;2022-10-16T10:04:14;20.00;99.90
3202;DHT22;34843;48.744;8.958;2022-10-16T10:06:43;20.00;99.90
3202;DHT22;34843;48.744;8.958;2022-10-16T10:11:42;20.30;99.90
3202;DHT22;34843;48.744;8.958;2022-10-16T10:16:43;20.60;99.90
3202;DHT22;34843;48.744;8.958;2022-10-16T10:22:01;20.90;99.90
3202;DHT22;34843;48.744;8.958;2022-10-16T10:24:26;21.00;99.90
3202;DHT22;34843;48.744;8.958;2022-10-16T10:26:57;21.10;99.90
3202;DHT22;34843;48.744;8.958;2022-10-16T10:29:27;21.30;99.90
3202;DHT22;34843;48.744;8.958;2022-10-16T10:37:33;21.60;99.90
3202;DHT22;34843;48.744;8.958;2022-10-16T10:42:48;21.70;99.90
3202;DHT22;34843;48.744;8.958;2022-10-16T10:47:46;21.60;99.90
3202;DHT22;34843;48.744;8.958;2022-10-16T11:00:21;21.50;99.90
3202;DHT22;34843;48.744;8.958;2022-10-16T11:10:44;21.40;99.90
3202;DHT22;34843;48.744;8.958;2022-10-16T11:13:15;21.40;99.90
3202;DHT22;34843;48.744;8.958;2022-10-16T11:15:42;21.40;99.90
3202;DHT22;34843;48.744;8.958;2022-10-16T11:18:19;21.40;99.90
3202;DHT22;34843;48.744;8.958;2022-10-16T11:20:48;21.50;99.90
3202;DHT22;34843;48.744;8.958;2022-10-16T11:23:16;21.50;99.90
3202;DHT22;34843;48.744;8.958;2022-10-16T11:25:43;21.50;99.90
3202;DHT22;34843;48.744;8.958;2022-10-16T11:28:18;21.60;99.90
3202;DHT22;34843;48.744;8.958;2022-10-16T11:30:50;21.60;99.90
3202;DHT22;34843;48.744;8.958;2022-10-16T11:35:44;21.70;99.90
3202;DHT22;34843;48.744;8.958;2022-10-16T11:38:19;21.80;99.90
3202;DHT22;34843;48.744;8.958;2022-10-16T11:40:47;21.80;99.90
3202;DHT22;34843;48.744;8.958;2022-10-16T11:43:15;21.90;99.90
3202;DHT22;34843;48.744;8.958;2022-10-16T11:45:42;21.90;99.90
3202;DHT22;34843;48.744;8.958;2022-10-16T11:48:21;22.00;99.90
3202;DHT22;34843;48.744;8.958;2022-10-16T11:53:39;22.30;99.90
3202;DHT22;34843;48.744;8.958;2022-10-16T11:56:06;22.40;99.90
3202;DHT22;34843;48.744;8.958;2022-10-16T12:01:12;22.40;99.90
3202;DHT22;34843;48.744;8.958;2022-10-16T12:03:46;22.40;99.90
3202;DHT22;34843;48.744;8.958;2022-10-16T12:06:17;22.50;99.90
3202;DHT22;34843;48.744;8.958;2022-10-16T12:08:48;22.50;99.90
3202;DHT22;34843;48.744;8.958;2022-10-16T12:13:49;22.70;99.90
3202;DHT22;34843;48.744;8.958;2022-10-16T12:18:40;23.00;99.90
3202;DHT22;34843;48.744;8.958;2022-10-16T12:21:07;23.10;99.90
3202;DHT22;34843;48.744;8.958;2022-10-16T12:23:36;23.10;99.90
3202;DHT22;34843;48.744;8.958;2022-10-16T12:26:03;23.20;99.90
3202;DHT22;34843;48.744;8.958;2022-10-16T12:28:29;23.30;99.90
3202;DHT22;34843;48.744;8.958;2022-10-16T12:31:00;23.40;99.90
3202;DHT22;34843;48.744;8.958;2022-10-16T12:34:01;23.30;99.90
3202;DHT22;34843;48.744;8.958;2022-10-16T12:36:31;23.30;99.90
3202;DHT22;34843;48.744;8.958;2022-10-16T12:38:57;23.20;99.90
3202;DHT22;34843;48.744;8.958;2022-10-16T12:41:32;23.20;99.90
3202;DHT22;34843;48.744;8.958;2022-10-16T12:44:00;23.20;99.90
3202;DHT22;34843;48.744;8.958;2022-10-16T12:49:04;23.20;99.90
3202;DHT22;34843;48.744;8.958;2022-10-16T12:53:59;22.90;99.90
3202;DHT22;34843;48.744;8.958;2022-10-16T13:01:36;22.70;99.90
3202;DHT22;34843;48.744;8.958;2022-10-16T13:09:34;22.40;99.90
3202;DHT22;34843;48.744;8.958;2022-10-16T13:12:11;22.40;99.90
3202;DHT22;34843;48.744;8.958;2022-10-16T13:19:48;22.60;99.90
3202;DHT22;34843;48.744;8.958;2022-10-16T13:22:27;22.70;99.90
3202;DHT22;34843;48.744;8.958;2022-10-16T13:27:23;22.80;99.90
3202;DHT22;34843;48.744;8.958;2022-10-16T13:29:54;22.90;99.90
3202;DHT22;34843;48.744;8.958;2022-10-16T13:32:24;22.90;99.90
3202;DHT22;34843;48.744;8.958;2022-10-16T13:34:51;23.00;99.90
3202;DHT22;34843;48.744;8.958;2022-10-16T13:37:19;23.00;99.90
3202;DHT22;34843;48.744;8.958;2022-10-16T13:39:44;23.10;99.90
3202;DHT22;34843;48.744;8.958;2022-10-16T13:42:11;23.20;99.90
3202;DHT22;34843;48.744;8.958;2022-10-16T13:44:42;23.30;99.90
3202;DHT22;34843;48.744;8.958;2022-10-16T13:47:21;23.30;99.90
3202;DHT22;34843;48.744;8.958;2022-10-16T13:49:47;23.30;99.90
3202;DHT22;34843;48.744;8.958;2022-10-16T13:52:23;23.30;99.90
3202;DHT22;34843;48.744;8.958;2022-10-16T13:54:49;23.10;99.90
3202;DHT22;34843;48.744;8.958;2022-10-16T13:57:14;23.00;99.90
3202;DHT22;34843;48.744;8.958;2022-10-16T13:59:40;22.90;99.90
3202;DHT22;34843;48.744;8.958;2022-10-16T14:04:50;22.80;99.90
3202;DHT22;34843;48.744;8.958;2022-10-16T14:07:37;22.80;99.90
3202;DHT22;34843;48.744;8.958;2022-10-16T14:10:03;22.80;99.90
3202;DHT22;34843;48.744;8.958;2022-10-16T14:12:29;22.80;99.90
3202;DHT22;34843;48.744;8.958;2022-10-16T14:14:55;22.80;99.90
3202;DHT22;34843;48.744;8.958;2022-10-16T14:17:26;22.80;99.90
3202;DHT22;34843;48.744;8.958;2022-10-16T14:19:53;22.90;99.90
3202;DHT22;34843;48.744;8.958;2022-10-16T14:24:44;22.80;99.90
3202;DHT22;34843;48.744;8.958;2022-10-16T14:32:52;22.90;99.90
3202;DHT22;34843;48.744;8.958;2022-10-16T14:37:53;23.00;99.90
3202;DHT22;34843;48.744;8.958;2022-10-16T14:40:19;23.00;99.90
3202;DHT22;34843;48.744;8.958;2022-10-16T14:42:45;23.10;99.90
3202;DHT22;34843;48.744;8.958;2022-10-16T14:45:11;23.20;99.90
3202;DHT22;34843;48.744;8.958;2022-10-16T14:47:37;23.20;99.90
3202;DHT22;34843;48.744;8.958;2022-10-16T14:50:11;23.20;99.90
3202;DHT22;34843;48.744;8.958;2022-10-16T14:52:37;23.30;99.90
3202;DHT22;34843;48.744;8.958;2022-10-16T14:55:02;23.30;99.90
3202;DHT22;34843;48.744;8.958;2022-10-16T14:57:28;23.30;99.90
3202;DHT22;34843;48.744;8.958;2022-10-16T14:59:56;23.30;99.90
3202;DHT22;34843;48.744;8.958;2022-10-16T15:02:32;23.30;99.90
3202;DHT22;34843;48.744;8.958;2022-10-16T15:04:59;23.20;99.90
3202;DHT22;34843;48.744;8.958;2022-10-16T15:07:27;23.20;99.90
3202;DHT22;34843;48.744;8.958;2022-10-16T15:09:53;23.10;99.90
3202;DHT22;34843;48.744;8.958;2022-10-16T15:12:18;23.00;99.90
3202;DHT22;34843;48.744;8.958;2022-10-16T15:14:44;22.80;99.90
3202;DHT22;34843;48.744;8.958;2022-10-16T15:17:10;22.70;99.90
3202;DHT22;34843;48.744;8.958;2022-10-16T15:19:35;22.70;99.90
3202;DHT22;34843;48.744;8.958;2022-10-16T15:22:01;22.60;99.90
3202;DHT22;34843;48.744;8.958;2022-10-16T15:24:26;22.50;99.90
3202;DHT22;34843;48.744;8.958;2022-10-16T15:26:52;22.40;99.90
3202;DHT22;34843;48.744;8.958;2022-10-16T15:29:17;22.30;99.90
3202;DHT22;34843;48.744;8.958;2022-10-16T15:31:43;22.20;99.90
3202;DHT22;34843;48.744;8.958;2022-10-16T15:34:09;22.20;99.90
3202;DHT22;34843;48.744;8.958;2022-10-16T15:36:35;22.10;99.90
3202;DHT22;34843;48.744;8.958;2022-10-16T15:39:05;22.10;99.90
3202;DHT22;34843;48.744;8.958;2022-10-16T15:41:31;22.10;99.90
3202;DHT22;34843;48.744;8.958;2022-10-16T15:43:56;22.10;99.90
3202;DHT22;34843;48.744;8.958;2022-10-16T15:46:22;22.00;99.90
3202;DHT22;34843;48.744;8.958;2022-10-16T15:48:49;22.00;99.90
3202;DHT22;34843;48.744;8.958;2022-10-16T15:51:14;21.80;99.90
3202;DHT22;34843;48.744;8.958;2022-10-16T15:53:40;21.70;99.90
3202;DHT22;34843;48.744;8.958;2022-10-16T15:56:06;21.70;99.90
3202;DHT22;34843;48.744;8.958;2022-10-16T15:58:32;21.60;99.90
3202;DHT22;34843;48.744;8.958;2022-10-16T16:00:58;21.50;99.90
3202;DHT22;34843;48.744;8.958;2022-10-16T16:03:26;21.40;99.90
3202;DHT22;34843;48.744;8.958;2022-10-16T16:05:52;21.30;99.90
3202;DHT22;34843;48.744;8.958;2022-10-16T16:08:17;21.10;99.90
3202;DHT22;34843;48.744;8.958;2022-10-16T16:10:43;20.90;99.90
3202;DHT22;34843;48.744;8.958;2022-10-16T16:13:08;20.70;99.90
3202;DHT22;34843;48.744;8.958;2022-10-16T16:15:34;20.50;99.90
3202;DHT22;34843;48.744;8.958;2022-10-16T16:17:59;20.40;99.90
3202;DHT22;34843;48.744;8.958;2022-10-16T16:20:26;20.20;99.90
3202;DHT22;34843;48.744;8.958;2022-10-16T16:22:52;20.10;99.90
3202;DHT22;34843;48.744;8.958;2022-10-16T16:25:17;20.00;99.90
3202;DHT22;34843;48.744;8.958;2022-10-16T16:27:44;19.90;99.90
3202;DHT22;34843;48.744;8.958;2022-10-16T16:30:10;19.80;99.90
3202;DHT22;34843;48.744;8.958;2022-10-16T16:32:35;19.70;99.90
3202;DHT22;34843;48.744;8.958;2022-10-16T16:35:01;19.60;99.90
3202;DHT22;34843;48.744;8.958;2022-10-16T16:37:27;19.50;99.90
3202;DHT22;34843;48.744;8.958;2022-10-16T16:39:53;19.30;99.90
3202;DHT22;34843;48.744;8.958;2022-10-16T16:42:20;19.20;99.90
3202;DHT22;34843;48.744;8.958;2022-10-16T16:44:47;19.20;99.90
3202;DHT22;34843;48.744;8.958;2022-10-16T16:47:12;19.10;99.90
3202;DHT22;34843;48.744;8.958;2022-10-16T16:49:37;19.10;99.90
3202;DHT22;34843;48.744;8.958;2022-10-16T16:52:03;19.10;99.90
3202;DHT22;34843;48.744;8.958;2022-10-16T16:54:28;19.00;99.90
3202;DHT22;34843;48.744;8.958;2022-10-16T16:56:54;18.90;99.90
3202;DHT22;34843;48.744;8.958;2022-10-16T16:59:20;18.80;99.90
3202;DHT22;34843;48.744;8.958;2022-10-16T17:01:47;18.70;99.90
3202;DHT22;34843;48.744;8.958;2022-10-16T17:04:13;18.60;99.90
3202;DHT22;34843;48.744;8.958;2022-10-16T17:06:40;18.50;99.90
3202;DHT22;34843;48.744;8.958;2022-10-16T17:09:06;18.50;99.90
3202;DHT22;34843;48.744;8.958;2022-10-16T17:11:32;18.40;99.90
3202;DHT22;34843;48.744;8.958;2022-10-16T17:13:58;18.30;99.90
3202;DHT22;34843;48.744;8.958;2022-10-16T17:16:25;18.30;99.90
3202;DHT22;34843;48.744;8.958;2022-10-16T17:18:51;18.20;99.90
3202;DHT22;34843;48.744;8.958;2022-10-16T17:21:18;18.00;99.90
3202;DHT22;34843;48.744;8.958;2022-10-16T17:23:43;17.90;99.90
3202;DHT22;34843;48.744;8.958;2022-10-16T17:26:13;17.80;99.90
3202;DHT22;34843;48.744;8.958;2022-10-16T17:28:39;17.80;99.90
3202;DHT22;34843;48.744;8.958;2022-10-16T17:31:12;17.60;99.90
3202;DHT22;34843;48.744;8.958;2022-10-16T17:33:38;17.50;99.90
3202;DHT22;34843;48.744;8.958;2022-10-16T17:36:04;17.50;99.90
3202;DHT22;34843;48.744;8.958;2022-10-16T17:38:29;17.40;99.90
3202;DHT22;34843;48.744;8.958;2022-10-16T17:40:55;17.30;99.90
3202;DHT22;34843;48.744;8.958;2022-10-16T17:43:20;17.20;99.90
3202;DHT22;34843;48.744;8.958;2022-10-16T17:45:46;17.20;99.90
3202;DHT22;34843;48.744;8.958;2022-10-16T17:48:11;17.00;99.90